Time;durP1;ratioP1;P1;durP2;ratioP2;P2;SDS_P1;SDS_P2;PMS_P1;PMS_P2;Temp;Humidity;BMP_temperature;BMP_pressure;BME280_temperature;BME280_humidity;BME280_pressure;Samples;Min_cycle;Max_cycle;Signal;HPM_P1;HPM_P2
2021/01/30 00:00:46;;;;;;;113.95;41.18;;;;;;;-3.26;75.46;96884.81;2161333;82;21710;-65
2021/01/30 00:03:48;;;;;;;97.95;37.20;;;;;;;-3.20;75.56;96894.86;2161309;82;21752;-66
2021/01/30 00:06:50;;;;;;;85.38;34.55;;;;;;;-3.01;75.55;96898.41;2161410;82;21271;-65
2021/01/30 00:09:53;;;;;;;87.40;32.67;;;;;;;-2.92;75.27;96896.39;2161369;82;21171;-65
2021/01/30 00:12:55;;;;;;;;;;;;;;;-3.04;74.98;96895.95;2163842;82;21265;-65
2021/01/30 00:15:57;;;;;;;91.57;34.40;;;;;;;-3.05;75.03;96896.84;2161490;82;20225;-65
2021/01/30 00:18:59;;;;;;;103.15;38.30;;;;;;;-3.04;75.16;96892.11;2161433;82;21146;-65
2021/01/30 00:22:02;;;;;;;108.25;39.50;;;;;;;-2.97;75.45;96883.29;2161105;82;21156;-65
2021/01/30 00:25:05;;;;;;;100.92;37.20;;;;;;;-2.82;75.44;96884.88;2161163;82;21193;-66
2021/01/30 00:28:07;;;;;;;97.05;35.83;;;;;;;-2.74;75.42;96884.15;2160971;82;21462;-66
2021/01/30 00:31:09;;;;;;;96.47;35.58;;;;;;;-2.65;75.25;96887.62;2161549;82;21131;-65
2021/01/30 00:34:12;;;;;;;90.03;34.90;;;;;;;-2.53;75.23;96897.03;2161354;82;21262;-65
2021/01/30 00:37:15;;;;;;;92.92;35.88;;;;;;;-2.46;74.84;96908.30;2161272;82;21678;-65
2021/01/30 00:40:17;;;;;;;94.25;37.35;;;;;;;-2.49;74.71;96905.01;2161605;82;21273;-65
2021/01/30 00:43:19;;;;;;;96.45;36.77;;;;;;;-2.50;74.67;96905.47;2161273;82;21725;-65
2021/01/30 00:46:21;;;;;;;94.20;35.63;;;;;;;-2.54;74.70;96906.48;2161148;82;21155;-65
2021/01/30 00:49:24;;;;;;;100.33;37.55;;;;;;;-2.45;74.87;96897.11;2169023;81;21575;-65
2021/01/30 00:52:26;;;;;;;94.25;39.13;;;;;;;-2.38;74.77;96900.75;2179036;81;21139;-65
2021/01/30 00:55:28;;;;;;;92.25;36.55;;;;;;;-2.35;74.63;96896.77;2178594;82;21300;-65
2021/01/30 00:58:30;;;;;;;94.70;38.55;;;;;;;-2.23;74.73;96888.55;2178505;81;21154;-65
2021/01/30 01:01:32;;;;;;;105.90;37.70;;;;;;;-2.19;74.29;96879.83;2179029;81;21154;-65
2021/01/30 01:04:35;;;;;;;94.28;37.20;;;;;;;-2.33;74.41;96878.27;2178724;81;21297;-65
2021/01/30 01:07:37;;;;;;;91.75;35.60;;;;;;;-2.37;74.62;96873.72;2178600;81;21741;-65
2021/01/30 01:10:39;;;;;;;;;;;;;;;-2.30;74.78;96864.02;2181017;81;21265;-65
2021/01/30 01:13:41;;;;;;;85.00;35.53;;;;;;;-2.30;74.51;96864.02;2150914;82;20221;-65
2021/01/30 01:16:43;;;;;;;90.05;34.43;;;;;;;-2.28;74.61;96864.80;2178795;81;21586;-65
2021/01/30 01:19:45;;;;;;;86.90;34.70;;;;;;;-2.29;74.62;96869.09;2178540;81;21122;-65
2021/01/30 01:22:47;;;;;;;87.10;33.83;;;;;;;-2.25;74.65;96868.52;2178533;81;21285;-65
2021/01/30 01:25:50;;;;;;;79.72;31.52;;;;;;;-2.24;74.65;96870.20;2178452;82;21262;-66
2021/01/30 01:28:52;;;;;;;79.25;32.80;;;;;;;-2.16;74.59;96875.02;2178689;81;21127;-65
2021/01/30 01:31:54;;;;;;;82.33;31.90;;;;;;;-2.13;74.21;96873.60;2178756;81;21142;-65
2021/01/30 01:34:56;;;;;;;77.05;29.18;;;;;;;-2.15;74.31;96876.23;2178718;82;21285;-65
2021/01/30 01:37:58;;;;;;;72.67;27.10;;;;;;;-2.00;74.31;96881.18;2150783;82;21296;-65
2021/01/30 01:41:00;;;;;;;66.62;25.75;;;;;;;-2.03;74.03;96871.50;2178500;81;21277;-65
2021/01/30 01:44:03;;;;;;;65.55;26.60;;;;;;;-2.04;74.06;96876.23;2178652;81;21296;-65
2021/01/30 01:47:05;;;;;;;61.25;23.80;;;;;;;-1.96;74.20;96868.59;2178965;81;21126;-65
2021/01/30 01:50:07;;;;;;;58.70;22.77;;;;;;;-1.89;73.69;96876.89;2168097;81;21757;-66
2021/01/30 01:53:09;;;;;;;58.48;23.45;;;;;;;-1.94;73.62;96866.81;2161415;82;21281;-65
2021/01/30 01:56:11;;;;;;;56.40;22.35;;;;;;;-1.98;73.64;96863.98;2161014;82;21179;-65
2021/01/30 01:59:13;;;;;;;58.05;23.20;;;;;;;-2.00;73.83;96861.91;2161512;82;21294;-65
2021/01/30 02:02:15;;;;;;;58.30;21.55;;;;;;;-1.96;73.60;96849.78;2161176;82;21290;-66
2021/01/30 02:05:17;;;;;;;51.08;20.40;;;;;;;-1.93;73.67;96856.07;2161080;82;21135;-65
2021/01/30 02:08:20;;;;;;;61.45;24.37;;;;;;;-1.94;73.49;96853.96;2161225;82;21729;-65
2021/01/30 02:11:22;;;;;;;;;;;;;;;-1.94;73.43;96850.11;2163757;82;21301;-65
2021/01/30 02:14:24;;;;;;;54.27;19.90;;;;;;;-1.98;73.30;96851.13;2161190;82;20489;-65
2021/01/30 02:17:26;;;;;;;49.60;19.87;;;;;;;-1.98;73.34;96861.41;2161509;82;21280;-66
2021/01/30 02:20:28;;;;;;;50.43;20.85;;;;;;;-1.96;73.11;96862.63;2161022;82;21159;-65
2021/01/30 02:23:31;;;;;;;51.90;21.20;;;;;;;-1.96;73.28;96862.63;2161227;82;21740;-66
2021/01/30 02:26:33;;;;;;;51.00;21.42;;;;;;;-2.00;73.30;96859.34;2160985;82;21135;-66
2021/01/30 02:29:35;;;;;;;52.27;21.27;;;;;;;-2.06;73.23;96854.47;2161121;82;21301;-65
2021/01/30 02:32:37;;;;;;;51.28;20.88;;;;;;;-2.01;73.25;96852.98;2161539;82;21278;-66
2021/01/30 02:35:39;;;;;;;53.02;21.37;;;;;;;-2.03;73.25;96854.80;2161176;82;21139;-64
2021/01/30 02:38:41;;;;;;;53.40;21.65;;;;;;;-2.03;73.22;96850.94;2161330;82;21317;-63
2021/01/30 02:41:44;;;;;;;52.25;21.40;;;;;;;-2.02;73.31;96853.91;2161253;82;21277;-63
2021/01/30 02:44:46;;;;;;;54.98;20.95;;;;;;;-1.97;73.48;96853.23;2161271;82;21274;-63
2021/01/30 02:47:49;;;;;;;57.67;22.17;;;;;;;-1.84;73.12;96854.41;2161110;82;21701;-63
2021/01/30 02:50:53;;;;;;;56.33;22.37;;;;;;;-1.87;73.03;96853.23;2174213;82;21149;-63
2021/01/30 02:53:55;;;;;;;51.37;23.12;;;;;;;-1.86;73.08;96853.63;2178742;82;21103;-65
2021/01/30 02:56:57;;;;;;;55.05;21.93;;;;;;;-1.88;73.16;96850.30;2178696;81;21712;-64
2021/01/30 03:00:00;;;;;;;55.40;22.67;;;;;;;-1.93;72.78;96845.80;2178573;81;21138;-64
2021/01/30 03:03:02;;;;;;;53.13;22.65;;;;;;;-1.95;73.01;96843.75;2178395;81;21260;-65
2021/01/30 03:06:04;;;;;;;58.98;24.85;;;;;;;-1.99;73.04;96842.20;2178622;81;21733;-64
2021/01/30 03:09:06;;;;;;;55.58;22.80;;;;;;;-2.01;72.94;96846.55;2178857;81;21155;-63
2021/01/30 03:12:08;;;;;;;57.27;23.10;;;;;;;-2.03;73.29;96847.91;2178625;81;21761;-63
2021/01/30 03:15:10;;;;;;;54.80;21.62;;;;;;;-2.09;73.14;96843.03;2178431;81;21304;-65
2021/01/30 03:18:12;;;;;;;55.20;21.12;;;;;;;-2.11;73.29;96851.27;2178899;81;21107;-63
2021/01/30 03:21:14;;;;;;;54.65;22.15;;;;;;;-2.10;73.49;96844.78;2178679;81;21269;-63
2021/01/30 03:24:16;;;;;;;54.50;23.32;;;;;;;-1.98;73.46;96842.14;2178895;82;21143;-63
2021/01/30 03:27:19;;;;;;;54.40;22.93;;;;;;;-1.99;73.16;96837.07;2178507;81;21284;-64
2021/01/30 03:30:21;;;;;;;57.10;23.62;;;;;;;-2.02;73.19;96831.60;2178420;81;21252;-64
2021/01/30 03:33:23;;;;;;;57.62;23.35;;;;;;;-2.07;73.37;96828.84;2178469;82;21111;-64
2021/01/30 03:36:25;;;;;;;55.55;22.98;;;;;;;-2.05;73.11;96824.03;2178876;81;21162;-63
2021/01/30 03:39:27;;;;;;;58.68;23.50;;;;;;;-2.12;73.38;96821.33;2150922;82;21304;-63
2021/01/30 03:42:29;;;;;;;56.02;22.40;;;;;;;-2.16;73.28;96823.18;2178414;81;21340;-63
2021/01/30 03:45:31;;;;;;;58.40;24.15;;;;;;;-2.21;73.51;96818.70;2178654;81;21261;-64
2021/01/30 03:48:34;;;;;;;59.13;24.12;;;;;;;-2.15;73.57;96814.59;2178840;81;21151;-64
2021/01/30 03:51:36;;;;;;;57.45;22.75;;;;;;;-2.19;73.52;96810.47;2162693;81;21297;-63
2021/01/30 03:54:38;;;;;;;57.20;22.17;;;;;;;-2.17;73.72;96803.98;2161611;82;21150;-63
2021/01/30 03:57:41;;;;;;;53.65;23.80;;;;;;;-2.14;73.64;96807.27;2139956;82;21290;-63
2021/01/30 04:00:43;;;;;;;53.08;23.05;;;;;;;-2.10;73.78;96807.53;2161451;82;21266;-63
2021/01/30 04:03:45;;;;;;;59.83;25.57;;;;;;;-2.09;73.65;96804.50;2161234;82;21284;-64
2021/01/30 04:06:47;;;;;;;65.55;25.72;;;;;;;-2.04;73.61;96803.02;2161150;82;21325;-63
2021/01/30 04:09:50;;;;;;;;;;;;;;;-2.07;73.58;96801.86;2163966;82;21151;-63
2021/01/30 04:12:52;;;;;;;54.13;22.77;;;;;;;-2.05;73.71;96796.20;2161606;82;20230;-63
2021/01/30 04:15:55;;;;;;;61.15;25.43;;;;;;;-2.05;73.57;96788.48;2161148;82;21750;-63
2021/01/30 04:18:57;;;;;;;61.83;25.77;;;;;;;-2.06;73.57;96784.27;2161663;82;21175;-64
2021/01/30 04:21:59;;;;;;;;;;;;;;;-2.03;73.47;96777.25;2163630;82;21599;-63
2021/01/30 04:25:01;;;;;;;54.13;22.43;;;;;;;-2.12;73.69;96777.66;2140305;82;20130;-63
2021/01/30 04:28:03;;;;;;;56.45;22.30;;;;;;;-2.26;73.65;96771.81;2161495;82;21344;-63
2021/01/30 04:31:06;;;;;;;61.13;23.50;;;;;;;-2.34;73.96;96772.16;2161154;82;21139;-64
2021/01/30 04:34:08;;;;;;;56.05;22.73;;;;;;;-2.30;74.03;96776.70;2161133;82;21179;-63
2021/01/30 04:37:10;;;;;;;56.80;22.87;;;;;;;-2.26;74.04;96775.67;2161409;82;21104;-63
2021/01/30 04:40:12;;;;;;;53.28;23.27;;;;;;;-2.23;74.13;96764.44;2161144;82;21115;-63
2021/01/30 04:43:14;;;;;;;54.88;21.33;;;;;;;-2.13;74.19;96752.86;2161176;82;21148;-63
2021/01/30 04:46:16;;;;;;;57.30;22.55;;;;;;;-2.11;74.00;96753.19;2161084;82;21131;-63
2021/01/30 04:49:18;;;;;;;52.85;22.10;;;;;;;-2.12;74.10;96746.37;2162023;81;21325;-63
2021/01/30 04:52:20;;;;;;;54.73;22.45;;;;;;;-2.08;73.89;96748.38;2150584;82;21111;-63
2021/01/30 04:55:23;;;;;;;51.37;21.33;;;;;;;-2.14;74.02;96741.77;2178759;82;21692;-63
2021/01/30 04:58:25;;;;;;;55.45;21.30;;;;;;;-2.14;74.16;96740.91;2178898;81;21178;-63
2021/01/30 05:01:27;;;;;;;55.15;22.65;;;;;;;-2.19;74.12;96736.44;2178774;81;21708;-63
2021/01/30 05:04:29;;;;;;;54.58;20.85;;;;;;;-2.20;74.29;96725.77;2178469;82;21269;-63
2021/01/30 05:07:31;;;;;;;53.35;21.70;;;;;;;-2.18;74.43;96727.84;2178469;81;21301;-63
2021/01/30 05:10:34;;;;;;;61.83;25.68;;;;;;;-2.18;74.51;96716.28;2178772;81;21725;-63
2021/01/30 05:13:36;;;;;;;56.92;23.22;;;;;;;-2.27;74.47;96715.78;2178786;81;21293;-63
2021/01/30 05:16:38;;;;;;;53.10;22.95;;;;;;;-2.35;74.85;96713.16;2150873;82;21296;-64
2021/01/30 05:19:41;;;;;;;51.35;22.80;;;;;;;-2.40;74.88;96697.09;2178369;81;21153;-64
2021/01/30 05:22:43;;;;;;;56.65;22.32;;;;;;;-2.48;75.00;96702.58;2178686;82;21693;-64
2021/01/30 05:25:45;;;;;;;51.95;21.70;;;;;;;-2.55;75.07;96711.44;2178523;81;21288;-63
2021/01/30 05:28:47;;;;;;;62.88;24.67;;;;;;;-2.57;75.17;96706.80;2178702;81;21740;-64
2021/01/30 05:31:49;;;;;;;55.80;22.48;;;;;;;-2.52;75.21;96710.02;2178506;81;21257;-63
2021/01/30 05:34:51;;;;;;;56.20;23.32;;;;;;;-2.53;75.21;96704.48;2178953;81;21143;-63
2021/01/30 05:37:53;;;;;;;52.27;22.22;;;;;;;-2.57;75.31;96706.37;2178503;82;21150;-63
2021/01/30 05:40:56;;;;;;;54.27;22.67;;;;;;;-2.53;75.36;96695.08;2178513;81;21265;-64
2021/01/30 05:43:58;;;;;;;58.13;23.45;;;;;;;-2.54;75.50;96697.68;2178951;81;21138;-64
2021/01/30 05:47:00;;;;;;;58.68;22.32;;;;;;;-2.53;75.49;96704.06;2178844;82;21123;-64
2021/01/30 05:50:02;;;;;;;54.65;23.07;;;;;;;-2.57;75.63;96701.23;2178612;81;21706;-63
2021/01/30 05:53:04;;;;;;;54.25;21.82;;;;;;;-2.52;75.89;96699.29;2178496;81;21127;-63
2021/01/30 05:56:06;;;;;;;51.55;22.70;;;;;;;-2.51;75.81;96699.69;2178458;82;21272;-64
2021/01/30 05:59:09;;;;;;;52.85;22.55;;;;;;;-2.50;76.01;96703.92;2178490;81;21284;-63
2021/01/30 06:02:11;;;;;;;53.23;21.10;;;;;;;-2.48;76.08;96696.16;2178508;81;21718;-64
2021/01/30 06:05:13;;;;;;;50.65;21.25;;;;;;;-2.52;76.01;96705.70;2178667;81;21300;-63
2021/01/30 06:08:15;;;;;;;50.00;19.70;;;;;;;-2.56;76.10;96711.86;2178452;82;21154;-64
2021/01/30 06:11:18;;;;;;;48.85;20.37;;;;;;;-2.56;76.26;96704.16;2178590;81;21748;-64
2021/01/30 06:14:20;;;;;;;50.78;20.17;;;;;;;-2.56;76.31;96705.45;2178419;81;21272;-64
2021/01/30 06:17:22;;;;;;;49.90;19.87;;;;;;;-2.52;76.38;96703.60;2178712;82;21138;-63
2021/01/30 06:20:24;;;;;;;50.58;19.85;;;;;;;-2.53;76.33;96707.91;2178596;82;21146;-64
2021/01/30 06:23:26;;;;;;;45.15;19.02;;;;;;;-2.49;76.59;96697.87;2178899;81;21142;-63
2021/01/30 06:26:28;;;;;;;51.80;20.72;;;;;;;-2.51;76.50;96689.41;2178527;81;21756;-63
2021/01/30 06:29:30;;;;;;;49.85;19.52;;;;;;;-2.54;76.64;96698.53;2178381;81;21285;-64
2021/01/30 06:32:32;;;;;;;49.67;20.20;;;;;;;-2.56;76.78;96689.22;2178672;81;21296;-63
2021/01/30 06:35:35;;;;;;;48.78;20.72;;;;;;;-2.57;77.24;96691.39;2178909;81;21142;-63
2021/01/30 06:38:37;;;;;;;50.40;20.05;;;;;;;-2.65;76.98;96677.61;2178616;82;21732;-63
2021/01/30 06:41:39;;;;;;;48.75;20.62;;;;;;;-2.65;77.08;96668.63;2178723;82;21577;-63
2021/01/30 06:44:41;;;;;;;51.05;21.48;;;;;;;-2.54;77.04;96670.30;2178463;81;21248;-63
2021/01/30 06:47:43;;;;;;;58.52;22.30;;;;;;;-2.49;77.09;96666.23;2178681;81;21702;-64
2021/01/30 06:50:45;;;;;;;52.55;21.25;;;;;;;-2.45;77.15;96655.77;2178766;81;21131;-63
2021/01/30 06:53:47;;;;;;;53.45;21.87;;;;;;;-2.45;77.03;96646.77;2178521;81;21757;-63
2021/01/30 06:56:49;;;;;;;53.50;21.60;;;;;;;-2.40;76.83;96649.59;2178563;81;21305;-64
2021/01/30 06:59:52;;;;;;;56.60;23.62;;;;;;;-2.40;76.92;96637.58;2178701;81;21130;-64
2021/01/30 07:02:54;;;;;;;56.65;22.55;;;;;;;-2.44;76.99;96636.08;2178693;81;21606;-63
2021/01/30 07:05:56;;;;;;;53.28;22.98;;;;;;;-2.44;77.34;96627.09;2178770;82;21165;-63
2021/01/30 07:08:58;;;;;;;53.10;22.25;;;;;;;-2.37;77.04;96618.22;2178342;81;21309;-63
2021/01/30 07:12:00;;;;;;;50.28;21.82;;;;;;;-2.33;76.94;96611.19;2178858;81;21158;-63
2021/01/30 07:15:03;;;;;;;50.40;21.40;;;;;;;-2.31;76.95;96601.70;2178829;81;21107;-63
2021/01/30 07:18:05;;;;;;;55.63;22.07;;;;;;;-2.35;77.33;96588.61;2178439;81;21277;-63
2021/01/30 07:21:07;;;;;;;51.68;20.88;;;;;;;-2.41;77.61;96593.58;2178426;81;21268;-63
2021/01/30 07:24:10;;;;;;;48.15;20.50;;;;;;;-2.41;78.00;96597.86;2150579;82;21272;-63
2021/01/30 07:27:13;;;;;;;55.33;22.90;;;;;;;-2.51;77.79;96598.27;2178590;81;21131;-63
2021/01/30 07:30:15;;;;;;;53.45;21.75;;;;;;;-2.52;78.62;96600.91;2178630;82;21166;-63
2021/01/30 07:33:17;;;;;;;52.15;21.33;;;;;;;-2.59;78.26;96604.19;2178858;81;21571;-64
2021/01/30 07:36:19;;;;;;;53.85;22.07;;;;;;;-2.64;78.57;96610.81;2178676;81;21300;-63
2021/01/30 07:39:21;;;;;;;63.98;25.92;;;;;;;-2.68;78.72;96605.89;2178629;81;21273;-63
2021/01/30 07:42:24;;;;;;;55.00;21.60;;;;;;;-2.71;79.26;96600.43;2178731;81;21135;-63
2021/01/30 07:45:26;;;;;;;56.08;23.32;;;;;;;-2.69;79.09;96601.19;2179072;82;21268;-63
2021/01/30 07:48:28;;;;;;;49.90;21.70;;;;;;;-2.59;79.26;96597.77;2178586;82;21304;-63
2021/01/30 07:51:31;;;;;;;49.98;22.05;;;;;;;-2.52;79.00;96591.47;2169611;81;21722;-63
2021/01/30 07:54:33;;;;;;;49.58;22.00;;;;;;;-2.55;79.18;96581.80;2161615;82;21282;-63
2021/01/30 07:57:35;;;;;;;;;;;;;;;-2.56;79.12;96586.55;2164026;82;21269;-63
2021/01/30 08:00:37;;;;;;;53.50;23.27;;;;;;;-2.52;79.06;96585.51;2161291;82;20229;-63
2021/01/30 08:03:39;;;;;;;56.58;24.15;;;;;;;-2.48;79.00;96579.34;2161057;82;21278;-64
2021/01/30 08:06:42;;;;;;;56.45;25.15;;;;;;;-2.45;79.42;96572.32;2161382;82;21598;-64
2021/01/30 08:09:44;;;;;;;57.65;24.00;;;;;;;-2.45;79.37;96571.03;2161218;82;21324;-63
2021/01/30 08:12:46;;;;;;;59.00;25.20;;;;;;;-2.49;79.23;96570.78;2161267;82;21288;-63
2021/01/30 08:15:48;;;;;;;55.50;23.18;;;;;;;-2.50;79.46;96565.72;2161148;82;21149;-63
2021/01/30 08:18:50;;;;;;;71.53;27.42;;;;;;;-2.55;79.47;96573.64;2161376;82;21725;-63
2021/01/30 08:21:52;;;;;;;76.60;31.07;;;;;;;-2.57;79.46;96564.33;2161403;82;21270;-63
2021/01/30 08:24:55;;;;;;;93.62;35.92;;;;;;;-2.58;79.85;96566.08;2161257;82;21309;-63
2021/01/30 08:27:57;;;;;;;67.32;27.13;;;;;;;-2.49;79.59;96567.40;2140089;82;21269;-63
2021/01/30 08:30:59;;;;;;;65.45;28.90;;;;;;;-2.42;79.54;96570.08;2161565;82;21293;-63
2021/01/30 08:34:01;;;;;;;66.07;30.25;;;;;;;-2.25;79.28;96573.63;2161530;82;21305;-63
2021/01/30 08:37:04;;;;;;;;;;;;;;;-2.19;79.06;96568.20;2163584;82;21163;-63
2021/01/30 08:40:06;;;;;;;56.67;23.67;;;;;;;-2.08;78.92;96569.83;2161507;82;20226;-63
2021/01/30 08:43:08;;;;;;;65.78;26.80;;;;;;;-2.01;78.66;96566.07;2161390;82;21720;-63
2021/01/30 08:46:10;;;;;;;68.10;27.65;;;;;;;-1.96;78.61;96566.67;2161451;82;21277;-63
2021/01/30 08:49:12;;;;;;;68.62;26.73;;;;;;;-1.90;78.67;96566.84;2161339;82;21314;-63
2021/01/30 08:52:14;;;;;;;74.00;28.35;;;;;;;-1.82;78.56;96560.89;2172857;82;21170;-64
2021/01/30 08:55:16;;;;;;;78.30;28.27;;;;;;;-1.58;78.04;96556.31;2178996;81;21151;-63
2021/01/30 08:58:19;;;;;;;86.80;36.75;;;;;;;-1.50;77.75;96561.54;2178769;81;21281;-63
2021/01/30 09:01:21;;;;;;;86.17;33.83;;;;;;;-1.59;77.43;96557.22;2178772;82;21292;-63
2021/01/30 09:04:24;;;;;;;78.35;32.03;;;;;;;-1.58;77.78;96562.74;2178852;81;21582;-63
2021/01/30 09:07:26;;;;;;;68.20;30.02;;;;;;;-1.57;77.72;96563.56;2178814;82;21235;-64
2021/01/30 09:10:29;;;;;;;75.95;33.02;;;;;;;-1.59;77.77;96566.22;2178753;82;21309;-63
2021/01/30 09:13:31;;;;;;;64.82;28.87;;;;;;;-1.57;77.69;96568.70;2178843;82;21154;-64
2021/01/30 09:16:33;;;;;;;56.18;25.12;;;;;;;-1.58;77.77;96582.03;2178992;81;21728;-64
2021/01/30 09:19:36;;;;;;;58.70;27.00;;;;;;;-1.62;77.71;96583.08;2179034;82;21162;-64
2021/01/30 09:22:39;;;;;;;56.77;24.67;;;;;;;-1.78;78.30;96578.27;2179011;81;21174;-63
2021/01/30 09:25:41;;;;;;;54.93;22.40;;;;;;;-1.83;78.62;96584.09;2178591;81;21141;-64
2021/01/30 09:28:43;;;;;;;48.33;20.48;;;;;;;-1.83;78.63;96587.48;2178511;82;21547;-63
2021/01/30 09:31:45;;;;;;;41.53;18.07;;;;;;;-1.77;78.35;96593.64;2178735;82;21713;-63
2021/01/30 09:34:47;;;;;;;35.40;14.28;;;;;;;-1.71;78.27;96604.09;2178963;81;21126;-63
2021/01/30 09:37:50;;;;;;;29.05;10.72;;;;;;;-1.69;78.18;96608.70;2178506;81;21273;-64
2021/01/30 09:40:52;;;;;;;35.03;13.48;;;;;;;-1.77;78.41;96605.64;2178484;82;21261;-64
2021/01/30 09:43:54;;;;;;;34.95;12.47;;;;;;;-1.69;78.21;96619.44;2178892;81;21150;-63
2021/01/30 09:46:56;;;;;;;31.77;12.65;;;;;;;-1.67;77.80;96606.88;2178584;81;21543;-63
2021/01/30 09:49:58;;;;;;;32.58;12.33;;;;;;;-1.68;78.12;96612.94;2178443;82;21312;-63
2021/01/30 09:53:00;;;;;;;36.63;14.18;;;;;;;-1.58;77.95;96618.02;2178687;81;21296;-63
2021/01/30 09:56:03;;;;;;;35.68;13.22;;;;;;;-1.58;77.49;96621.02;2178563;81;21284;-63
2021/01/30 09:59:05;;;;;;;40.63;16.32;;;;;;;-1.57;77.64;96635.55;2178505;81;21272;-63
2021/01/30 10:02:07;;;;;;;;;;;;;;;-1.55;77.63;96635.05;2181183;81;21677;-63
2021/01/30 10:05:09;;;;;;;40.67;16.90;;;;;;;-1.55;76.74;96640.63;2178572;82;20241;-65
2021/01/30 10:08:12;;;;;;;;;;;;;;;-1.70;77.40;96635.77;2180929;82;21303;-65
2021/01/30 10:11:14;;;;;;;42.38;16.27;;;;;;;-1.66;77.50;96650.14;2178858;82;20425;-65
2021/01/30 10:14:19;;;;;;;39.27;16.12;;;;;;;-1.68;77.81;96660.50;2178806;82;21139;-65
2021/01/30 10:17:21;;;;;;;39.42;15.58;;;;;;;-1.55;77.45;96641.91;2178358;81;21296;-65
2021/01/30 10:20:24;;;;;;;35.75;14.20;;;;;;;-1.37;77.07;96658.22;2178597;81;21605;-65
2021/01/30 10:23:26;;;;;;;35.25;13.58;;;;;;;-1.21;76.76;96660.42;2178510;82;21713;-65
2021/01/30 10:26:28;;;;;;;35.38;13.78;;;;;;;-1.07;76.24;96660.58;2178429;81;21274;-65
2021/01/30 10:29:32;;;;;;;34.33;13.30;;;;;;;-0.96;75.58;96666.50;2177983;82;21277;-63
2021/01/30 10:32:34;;;;;;;35.73;13.35;;;;;;;-0.90;75.71;96662.80;2178450;82;21273;-63
2021/01/30 10:35:36;;;;;;;33.15;13.15;;;;;;;-0.91;75.45;96676.57;2178825;82;21138;-63
2021/01/30 10:38:38;;;;;;;;;;;;;;;-0.88;75.21;96683.70;2181031;81;21131;-64
2021/01/30 10:41:41;;;;;;;34.27;12.93;;;;;;;-0.73;75.06;96700.59;2178594;82;20225;-64
2021/01/30 10:44:43;;;;;;;33.83;12.45;;;;;;;-0.62;75.16;96698.28;2178443;81;21273;-64
2021/01/30 10:47:45;;;;;;;32.88;12.53;;;;;;;-0.47;74.58;96697.98;2178650;81;21737;-63
2021/01/30 10:50:47;;;;;;;32.60;11.20;;;;;;;-0.38;74.14;96693.64;2178507;81;21301;-64
2021/01/30 10:53:49;;;;;;;32.23;11.90;;;;;;;-0.30;73.85;96716.89;2178660;81;21590;-63
2021/01/30 10:56:51;;;;;;;31.73;12.60;;;;;;;-0.35;74.35;96725.69;2178457;81;21276;-64
2021/01/30 10:59:54;;;;;;;33.15;12.47;;;;;;;-0.37;74.24;96740.86;2178815;82;21285;-64
2021/01/30 11:02:56;;;;;;;34.08;13.25;;;;;;;-0.57;74.22;96756.84;2178758;81;21289;-64
2021/01/30 11:05:59;;;;;;;34.40;12.82;;;;;;;-0.80;75.12;96774.70;2178542;81;21309;-64
2021/01/30 11:09:01;;;;;;;33.55;13.35;;;;;;;-1.00;75.33;96774.83;2178765;82;21222;-64
2021/01/30 11:12:03;;;;;;;37.58;14.18;;;;;;;-1.07;75.71;96775.09;2178690;82;21296;-64
2021/01/30 11:15:06;;;;;;;36.83;13.58;;;;;;;-0.91;75.68;96764.08;2150633;82;21700;-64
2021/01/30 11:18:08;;;;;;;39.15;14.75;;;;;;;-0.54;74.74;96768.74;2178685;81;21285;-64
2021/01/30 11:21:11;;;;;;;;;;;;;;;-0.40;74.19;96772.76;2180874;81;21720;-64
2021/01/30 11:24:13;;;;;;;41.10;15.35;;;;;;;-0.28;73.49;96781.61;2178858;82;20206;-64
2021/01/30 11:27:15;;;;;;;38.25;15.53;;;;;;;-0.38;73.67;96804.41;2178677;81;21265;-64
2021/01/30 11:30:17;;;;;;;39.50;15.23;;;;;;;-0.41;73.80;96814.87;2178882;81;21174;-64
2021/01/30 11:33:19;;;;;;;40.15;15.98;;;;;;;-0.56;74.29;96837.50;2178429;82;21143;-64
2021/01/30 11:36:21;;;;;;;38.75;15.80;;;;;;;-0.54;74.24;96841.67;2178908;81;21150;-63
2021/01/30 11:39:24;;;;;;;37.78;14.33;;;;;;;-0.53;74.49;96841.24;2178418;82;21272;-64
2021/01/30 11:42:26;;;;;;;39.25;14.78;;;;;;;-0.43;74.44;96857.92;2178744;81;21160;-64
2021/01/30 11:45:28;;;;;;;36.93;13.13;;;;;;;-0.32;74.19;96868.98;2150587;82;21732;-65
2021/01/30 11:48:31;;;;;;;33.28;12.43;;;;;;;-0.28;73.45;96865.81;2178236;81;21747;-65
2021/01/30 11:51:33;;;;;;;34.70;11.90;;;;;;;-0.33;72.90;96896.11;2178344;81;21264;-65
2021/01/30 11:54:35;;;;;;;36.68;13.95;;;;;;;-0.26;73.29;96883.30;2150690;82;21257;-65
2021/01/30 11:57:38;;;;;;;42.90;17.10;;;;;;;-0.21;72.67;96882.64;2178514;82;21147;-65
2021/01/30 12:00:40;;;;;;;40.00;16.42;;;;;;;-0.26;75.48;96892.33;2178455;81;21280;-66
2021/01/30 12:03:42;;;;;;;41.42;17.05;;;;;;;-0.18;75.81;96905.68;2178472;81;21241;-66
2021/01/30 12:06:45;;;;;;;40.10;16.37;;;;;;;-0.13;75.47;96907.59;2178642;82;21748;-64
2021/01/30 12:09:47;;;;;;;41.53;18.27;;;;;;;-0.11;73.96;96908.34;2178630;81;21313;-65
2021/01/30 12:12:49;;;;;;;48.23;20.50;;;;;;;-0.15;72.91;96922.75;2178537;81;21111;-65
2021/01/30 12:15:51;;;;;;;53.68;23.18;;;;;;;-0.44;72.62;96933.52;2178813;82;21147;-64
2021/01/30 12:18:53;;;;;;;56.80;25.52;;;;;;;-0.77;73.03;96953.94;2179066;82;21281;-63
2021/01/30 12:21:56;;;;;;;53.45;24.60;;;;;;;-0.93;73.75;96958.95;2178699;82;21717;-64
2021/01/30 12:24:58;;;;;;;64.60;27.25;;;;;;;-0.74;73.96;96952.05;2179037;82;21123;-64
2021/01/30 12:28:00;;;;;;;59.00;27.65;;;;;;;-0.53;73.29;96954.56;2178902;81;21134;-64
2021/01/30 12:31:03;;;;;;;58.40;28.50;;;;;;;-0.43;71.90;96974.27;2178567;81;21714;-64
2021/01/30 12:34:05;;;;;;;65.32;28.67;;;;;;;-0.37;71.92;96964.53;2178550;81;21317;-64
2021/01/30 12:37:07;;;;;;;;;;;;;;;-0.15;71.84;96975.11;2153150;82;21293;-65
2021/01/30 12:40:10;;;;;;;58.93;26.87;;;;;;;-0.21;71.61;96973.66;2178838;82;20495;-64
2021/01/30 12:43:13;;;;;;;58.33;26.95;;;;;;;-0.29;71.99;96984.77;2178413;81;21153;-64
2021/01/30 12:46:16;;;;;;;59.85;27.62;;;;;;;-0.29;71.98;97006.67;2178583;81;21269;-66
2021/01/30 12:49:18;;;;;;;56.70;26.82;;;;;;;-0.50;71.87;97006.37;2178646;82;21739;-62
2021/01/30 12:52:20;;;;;;;58.08;26.82;;;;;;;-0.57;72.00;97005.37;2178509;81;21265;-63
2021/01/30 12:55:22;;;;;;;66.20;30.97;;;;;;;-0.77;71.76;97030.72;2178532;82;21265;-65
2021/01/30 12:58:25;;;;;;;59.90;27.45;;;;;;;-0.90;72.80;97025.27;2178653;82;21542;-65
2021/01/30 13:01:27;;;;;;;60.85;27.62;;;;;;;-1.04;73.04;97039.19;2178731;81;21142;-65
2021/01/30 13:04:29;;;;;;;69.35;30.10;;;;;;;-1.24;74.39;97040.03;2178453;81;21241;-64
2021/01/30 13:07:31;;;;;;;67.70;31.07;;;;;;;-1.30;75.25;97046.27;2178521;82;21748;-63
2021/01/30 13:10:34;;;;;;;63.45;29.52;;;;;;;-1.40;74.63;97046.27;2178991;82;21305;-63
2021/01/30 13:13:36;;;;;;;67.08;27.87;;;;;;;-1.44;75.28;97057.58;2150765;82;21859;-64
2021/01/30 13:16:38;;;;;;;67.55;30.35;;;;;;;-1.50;75.17;97053.98;2178392;82;21154;-65
2021/01/30 13:19:41;;;;;;;;;;;;;;;-1.48;75.22;97053.02;2181023;81;21130;-64
2021/01/30 13:22:43;;;;;;;62.90;27.58;;;;;;;-1.49;75.74;97059.05;2178516;82;20193;-64
2021/01/30 13:25:46;;;;;;;65.50;30.88;;;;;;;-1.48;75.56;97050.45;2178885;82;21162;-64
2021/01/30 13:28:48;;;;;;;61.18;27.98;;;;;;;-1.43;75.42;97052.37;2178915;81;21182;-64
2021/01/30 13:31:50;;;;;;;60.90;28.83;;;;;;;-1.42;75.36;97060.48;2178805;81;21130;-65
2021/01/30 13:34:52;;;;;;;55.90;27.50;;;;;;;-1.42;75.36;97064.80;2178416;81;21119;-65
2021/01/30 13:37:54;;;;;;;62.40;29.32;;;;;;;-1.48;75.68;97087.74;2178283;81;21268;-65
2021/01/30 13:40:57;;;;;;;63.23;29.92;;;;;;;-1.53;76.25;97088.36;2178699;81;21717;-66
2021/01/30 13:43:59;;;;;;;58.60;27.10;;;;;;;-1.53;76.23;97096.53;2178379;81;21123;-63
2021/01/30 13:47:02;;;;;;;54.08;26.02;;;;;;;-1.61;76.37;97109.67;2177949;81;21320;-64
2021/01/30 13:50:04;;;;;;;60.30;27.65;;;;;;;-1.65;76.53;97111.98;2178144;81;21741;-63
2021/01/30 13:53:06;;;;;;;57.30;26.62;;;;;;;-1.71;76.94;97115.66;2169034;82;21289;-64
2021/01/30 13:56:08;;;;;;;57.98;25.20;;;;;;;-1.71;76.70;97117.37;2160547;82;21186;-63
2021/01/30 13:59:11;;;;;;;52.55;22.85;;;;;;;-1.76;76.86;97120.95;2161262;82;21269;-63
2021/01/30 14:02:13;;;;;;;47.55;20.68;;;;;;;-1.83;77.16;97120.80;2161036;82;21329;-63